createdAt,value
2022-11-16T00:02:21.028Z,8.37
2022-11-16T00:04:49.072Z,8.33
2022-11-16T00:07:17.272Z,8.35
2022-11-16T00:09:45.373Z,8.67
2022-11-16T00:12:13.859Z,8.60
2022-11-16T00:14:41.747Z,8.96
2022-11-16T00:17:09.690Z,8.84
2022-11-16T00:19:39.140Z,8.60
2022-11-16T00:22:07.095Z,8.46
2022-11-16T00:24:35.077Z,8.77
2022-11-16T00:27:03.030Z,8.78
2022-11-16T00:29:31.446Z,8.84
2022-11-16T00:31:59.608Z,8.88
2022-11-16T00:34:28.666Z,8.77
2022-11-16T00:36:58.115Z,8.87
2022-11-16T00:39:26.348Z,9.15
2022-11-16T00:41:54.283Z,8.76
2022-11-16T00:44:22.598Z,8.88
2022-11-16T00:46:50.600Z,9.02
2022-11-16T00:49:18.527Z,8.53
2022-11-16T00:51:46.535Z,8.75
2022-11-16T00:54:15.862Z,8.47
2022-11-16T00:56:43.954Z,8.02
2022-11-16T00:59:13.245Z,8.22
2022-11-16T01:01:43.414Z,8.29
2022-11-16T01:04:11.532Z,8.27
2022-11-16T01:06:39.451Z,7.97
2022-11-16T01:09:07.435Z,8.18
2022-11-16T01:11:53.951Z,8.19
2022-11-16T01:14:21.921Z,8.67
2022-11-16T01:16:50.731Z,8.92
2022-11-16T01:19:18.931Z,8.83
2022-11-16T01:21:46.973Z,9.18
2022-11-16T01:24:15.179Z,8.84
2022-11-16T01:26:44.574Z,8.48
2022-11-16T01:29:12.868Z,8.30
2022-11-16T01:31:45.332Z,8.66
2022-11-16T01:34:13.482Z,8.88
2022-11-16T01:36:41.384Z,8.90
2022-11-16T01:39:09.500Z,8.95
2022-11-16T01:41:48.225Z,8.61
2022-11-16T01:44:58.614Z,8.80
2022-11-16T01:47:26.977Z,8.83
2022-11-16T01:50:00.688Z,8.62
2022-11-16T01:52:34.972Z,8.53
2022-11-16T01:55:04.873Z,8.60
2022-11-16T01:57:49.084Z,8.39
2022-11-16T02:00:19.592Z,8.63
2022-11-16T02:03:01.188Z,8.86
2022-11-16T02:06:13.151Z,8.86
2022-11-16T02:09:13.788Z,9.31
2022-11-16T02:12:17.944Z,9.29
2022-11-16T02:15:05.352Z,9.15
2022-11-16T02:17:42.825Z,8.95
2022-11-16T02:20:55.850Z,8.90
2022-11-16T02:23:51.704Z,9.38
2022-11-16T02:26:36.092Z,9.15
2022-11-16T02:29:19.968Z,8.57
2022-11-16T02:31:52.107Z,8.45
2022-11-16T02:34:22.329Z,7.97
2022-11-16T02:36:54.382Z,7.83
2022-11-16T02:39:27.240Z,7.73
2022-11-16T02:41:57.713Z,8.12
2022-11-16T02:44:34.056Z,8.03
2022-11-16T02:47:05.914Z,8.56
2022-11-16T02:49:37.904Z,8.13
2022-11-16T02:52:06.208Z,8.06
2022-11-16T02:54:34.120Z,7.81
2022-11-16T02:57:28.295Z,8.43
2022-11-16T03:00:00.100Z,8.32
2022-11-16T03:02:37.511Z,7.72
2022-11-16T03:05:10.596Z,7.48
2022-11-16T03:07:49.004Z,7.95
2022-11-16T03:10:34.289Z,8.06
2022-11-16T03:13:08.395Z,7.73
2022-11-16T03:15:42.361Z,7.56
2022-11-16T03:18:16.710Z,8.04
2022-11-16T03:20:45.555Z,7.96
2022-11-16T03:23:14.975Z,8.40
2022-11-16T03:25:50.353Z,8.38
2022-11-16T03:28:25.515Z,8.10
2022-11-16T03:31:02.909Z,8.65
2022-11-16T03:33:36.739Z,8.34
2022-11-16T03:36:10.161Z,7.87
2022-11-16T03:38:41.800Z,8.28
2022-11-16T03:41:12.099Z,8.25
2022-11-16T03:43:41.466Z,8.48
2022-11-16T03:46:11.460Z,8.60
2022-11-16T03:48:41.897Z,8.68
2022-11-16T03:51:16.070Z,8.31
2022-11-16T03:53:44.119Z,8.22
2022-11-16T03:56:14.585Z,8.07
2022-11-16T03:58:42.544Z,8.35
2022-11-16T04:01:12.056Z,8.28
2022-11-16T04:03:41.276Z,8.46
2022-11-16T04:06:29.180Z,7.80
2022-11-16T04:09:14.617Z,8.04
2022-11-16T04:12:00.906Z,8.21
2022-11-16T04:14:47.171Z,8.06
2022-11-16T04:17:38.324Z,8.08
2022-11-16T04:20:24.656Z,8.41
2022-11-16T04:23:17.278Z,8.28
2022-11-16T04:25:47.816Z,8.27
2022-11-16T04:28:19.704Z,8.12
2022-11-16T04:31:23.385Z,7.90
2022-11-16T04:34:22.306Z,8.33
2022-11-16T04:37:10.839Z,8.51
2022-11-16T04:39:40.417Z,8.18
2022-11-16T04:42:14.972Z,8.63
2022-11-16T04:45:01.912Z,8.64
2022-11-16T04:47:36.613Z,8.50
2022-11-16T04:50:07.023Z,7.92
2022-11-16T04:52:35.240Z,8.28
2022-11-16T04:55:04.725Z,8.27
2022-11-16T04:57:33.677Z,8.66
2022-11-16T05:00:01.703Z,8.32
2022-11-16T05:02:30.741Z,8.46
2022-11-16T05:04:59.920Z,8.41
2022-11-16T05:07:30.969Z,8.55
2022-11-16T05:10:07.019Z,8.27
2022-11-16T05:12:36.278Z,8.09
2022-11-16T05:15:08.138Z,8.44
2022-11-16T05:17:36.479Z,8.25
2022-11-16T05:20:29.895Z,8.10
2022-11-16T05:23:05.063Z,8.10
2022-11-16T05:25:37.137Z,8.37
2022-11-16T05:28:08.458Z,8.78
2022-11-16T05:30:40.757Z,8.80
2022-11-16T05:33:09.097Z,8.87
2022-11-16T05:35:41.103Z,8.77
2022-11-16T05:38:10.736Z,8.52
2022-11-16T05:40:45.548Z,8.76
2022-11-16T05:43:13.813Z,8.23
2022-11-16T05:45:50.214Z,8.75
2022-11-16T05:48:18.182Z,8.63
2022-11-16T05:50:46.240Z,8.61
2022-11-16T05:53:24.917Z,8.72
2022-11-16T05:55:53.537Z,8.70
2022-11-16T05:58:22.468Z,8.65
2022-11-16T06:00:52.152Z,8.45
2022-11-16T06:03:21.164Z,8.54
2022-11-16T06:05:53.213Z,8.81
2022-11-16T06:08:21.440Z,8.88
2022-11-16T06:10:54.472Z,9.25
2022-11-16T06:13:22.769Z,9.20
2022-11-16T06:15:55.501Z,9.24
2022-11-16T06:18:24.071Z,9.16
2022-11-16T06:20:52.290Z,9.15
2022-11-16T06:23:21.881Z,9.42
2022-11-16T06:25:55.984Z,9.73
2022-11-16T06:28:26.448Z,9.50
2022-11-16T06:30:55.666Z,9.67
2022-11-16T06:33:29.649Z,9.35
2022-11-16T06:36:02.066Z,9.57
2022-11-16T06:38:30.171Z,9.47
2022-11-16T06:41:01.431Z,9.64
2022-11-16T06:43:31.266Z,9.54
2022-11-16T06:46:01.288Z,9.28
2022-11-16T06:48:29.412Z,9.48
2022-11-16T06:50:57.563Z,9.57
2022-11-16T06:53:29.253Z,9.58
2022-11-16T06:56:04.155Z,9.65
2022-11-16T06:58:35.713Z,9.66
2022-11-16T07:01:08.229Z,9.73
2022-11-16T07:03:38.843Z,9.87
2022-11-16T07:06:09.839Z,9.94
2022-11-16T07:08:39.617Z,9.86
2022-11-16T07:11:10.478Z,9.42
2022-11-16T07:13:39.664Z,9.33
2022-11-16T07:16:12.405Z,9.65
2022-11-16T07:18:46.111Z,9.88
2022-11-16T07:21:16.867Z,9.77
2022-11-16T07:23:46.079Z,10.04
2022-11-16T07:26:20.514Z,9.91
2022-11-16T07:28:54.073Z,9.80
2022-11-16T07:31:23.739Z,9.89
2022-11-16T07:34:11.624Z,9.20
2022-11-16T07:36:45.829Z,9.57
2022-11-16T07:39:14.302Z,9.32
2022-11-16T07:41:45.202Z,9.39
2022-11-16T07:44:26.289Z,9.37
2022-11-16T07:47:07.632Z,9.42
2022-11-16T07:49:37.238Z,9.82
2022-11-16T07:52:11.323Z,8.96
2022-11-16T07:54:51.519Z,9.08
2022-11-16T07:57:21.822Z,9.70
2022-11-16T07:59:50.699Z,9.85
2022-11-16T08:02:19.038Z,9.61
2022-11-16T08:04:47.169Z,9.33
2022-11-16T08:07:16.582Z,9.25
2022-11-16T08:09:52.046Z,9.55
2022-11-16T08:12:22.989Z,9.74
2022-11-16T08:14:50.986Z,9.55
2022-11-16T08:17:18.940Z,9.72
2022-11-16T08:19:46.911Z,9.20
2022-11-16T08:22:17.116Z,8.90
2022-11-16T08:24:46.499Z,8.98
2022-11-16T08:27:16.994Z,9.10
2022-11-16T08:29:49.100Z,9.58
2022-11-16T08:32:17.183Z,9.32
2022-11-16T08:34:45.598Z,8.96
2022-11-16T08:37:14.289Z,9.32
2022-11-16T08:39:46.243Z,9.10
2022-11-16T08:42:14.518Z,8.84
2022-11-16T08:44:46.970Z,8.87
2022-11-16T08:47:18.123Z,8.50
2022-11-16T08:49:50.140Z,9.27
2022-11-16T08:52:20.297Z,9.38
2022-11-16T08:54:50.549Z,9.27
2022-11-16T08:57:19.024Z,9.15
2022-11-16T08:59:50.127Z,9.51
2022-11-16T09:02:25.349Z,9.49
2022-11-16T09:04:53.735Z,9.50
2022-11-16T09:07:22.429Z,9.21
2022-11-16T09:09:50.339Z,9.09
2022-11-16T09:12:18.292Z,9.38
2022-11-16T09:14:46.253Z,9.81
2022-11-16T09:17:18.810Z,9.37
2022-11-16T09:19:51.293Z,9.29
2022-11-16T09:22:19.375Z,9.37
2022-11-16T09:24:47.403Z,9.49
2022-11-16T09:27:16.510Z,8.94
2022-11-16T09:29:44.406Z,9.39
2022-11-16T09:32:12.328Z,9.17
2022-11-16T09:34:40.257Z,9.36
2022-11-16T09:37:09.873Z,9.35
2022-11-16T09:39:37.782Z,9.05
2022-11-16T09:42:26.707Z,9.37
2022-11-16T09:45:04.274Z,9.57
2022-11-16T09:47:50.189Z,9.65
2022-11-16T09:50:37.179Z,9.37
2022-11-16T09:53:23.658Z,9.20
2022-11-16T09:55:54.348Z,9.34
2022-11-16T09:58:28.031Z,8.99
2022-11-16T10:01:01.147Z,9.55
2022-11-16T10:03:33.379Z,8.92
2022-11-16T10:06:04.431Z,9.61
2022-11-16T10:08:44.271Z,9.73
2022-11-16T10:11:38.142Z,9.13
2022-11-16T10:14:14.862Z,9.73
2022-11-16T10:16:50.868Z,9.21
2022-11-16T10:19:29.002Z,9.26
2022-11-16T10:22:04.978Z,9.63
2022-11-16T10:24:50.968Z,10.02
2022-11-16T10:27:45.191Z,9.95
2022-11-16T10:30:15.939Z,9.96
2022-11-16T10:32:51.150Z,9.48
2022-11-16T10:35:25.328Z,9.68
2022-11-16T10:37:53.506Z,9.72
2022-11-16T10:40:25.004Z,9.45
2022-11-16T10:43:01.316Z,9.28
2022-11-16T10:45:36.509Z,9.13
2022-11-16T10:48:16.840Z,9.28
2022-11-16T10:50:48.094Z,8.88
2022-11-16T10:53:26.437Z,9.14
2022-11-16T10:56:12.099Z,9.32
2022-11-16T10:58:52.331Z,9.47
2022-11-16T11:01:38.401Z,9.39
2022-11-16T11:04:21.990Z,8.85
2022-11-16T11:06:51.431Z,8.83
2022-11-16T11:09:28.950Z,9.35
2022-11-16T11:12:31.367Z,8.76
2022-11-16T11:15:06.826Z,9.08
2022-11-16T11:17:36.475Z,9.74
2022-11-16T11:20:06.652Z,9.60
2022-11-16T11:22:42.864Z,9.76
2022-11-16T11:25:22.888Z,9.82
2022-11-16T11:27:53.898Z,9.49
2022-11-16T11:30:23.302Z,9.69
2022-11-16T11:32:52.928Z,9.08
2022-11-16T11:35:25.967Z,8.89
2022-11-16T11:37:57.124Z,9.01
2022-11-16T11:40:26.416Z,9.55
2022-11-16T11:42:59.373Z,9.39
2022-11-16T11:45:35.577Z,8.82
2022-11-16T11:48:07.680Z,9.18
2022-11-16T11:50:46.389Z,9.00
2022-11-16T11:53:25.206Z,8.98
2022-11-16T11:55:58.150Z,8.99
2022-11-16T11:58:32.009Z,8.91
2022-11-16T12:01:25.874Z,9.33
2022-11-16T12:04:26.258Z,9.16
2022-11-16T12:07:02.509Z,9.15
2022-11-16T12:09:37.637Z,9.67
2022-11-16T12:12:23.124Z,9.31
2022-11-16T12:15:23.473Z,9.45
2022-11-16T12:17:59.650Z,10.01
2022-11-16T12:20:35.356Z,9.33
2022-11-16T12:23:28.556Z,9.72
2022-11-16T12:26:03.726Z,9.44
2022-11-16T12:28:52.626Z,9.90
2022-11-16T12:31:43.847Z,9.43
2022-11-16T12:34:21.286Z,8.92
2022-11-16T12:36:57.005Z,8.99
2022-11-16T12:39:27.511Z,9.11
2022-11-16T12:42:24.983Z,9.15
2022-11-16T12:45:06.353Z,9.60
2022-11-16T12:47:43.893Z,9.54
2022-11-16T12:50:36.596Z,9.38
2022-11-16T12:53:20.162Z,9.35
2022-11-16T12:55:51.507Z,9.69
2022-11-16T12:58:28.269Z,9.57
2022-11-16T13:01:04.641Z,9.60
2022-11-16T13:03:40.301Z,9.70
2022-11-16T13:06:12.866Z,9.31
2022-11-16T13:08:53.503Z,9.56
2022-11-16T13:11:24.774Z,9.39
2022-11-16T13:13:57.944Z,9.16
2022-11-16T13:16:25.901Z,9.58
2022-11-16T13:18:55.786Z,9.71
2022-11-16T13:21:34.060Z,9.19
2022-11-16T13:24:13.990Z,9.50
2022-11-16T13:26:49.302Z,9.58
2022-11-16T13:29:30.566Z,9.24
2022-11-16T13:32:05.774Z,9.37
2022-11-16T13:34:38.572Z,9.66
2022-11-16T13:37:48.565Z,9.47
2022-11-16T13:40:28.781Z,9.55
2022-11-16T13:43:08.337Z,9.83
2022-11-16T13:45:40.534Z,9.79
2022-11-16T13:48:18.451Z,9.32
2022-11-16T13:50:53.060Z,9.51
2022-11-16T13:56:21.816Z,9.23
2022-11-16T13:58:55.694Z,9.61
2022-11-16T14:01:23.878Z,9.95
2022-11-16T14:03:53.331Z,10.01
2022-11-16T14:06:58.163Z,9.70
2022-11-16T14:09:44.996Z,10.06
2022-11-16T14:12:52.911Z,10.09
2022-11-16T14:15:23.376Z,10.04
2022-11-16T14:17:59.623Z,9.93
2022-11-16T14:20:57.101Z,9.98
2022-11-16T14:23:37.112Z,9.82
2022-11-16T14:26:14.464Z,9.59
2022-11-16T14:28:55.317Z,9.48
2022-11-16T14:31:25.625Z,9.14
2022-11-16T14:33:56.291Z,9.53
2022-11-16T14:36:41.215Z,10.10
2022-11-16T14:39:18.665Z,10.01
2022-11-16T14:41:48.084Z,9.81
2022-11-16T14:44:19.623Z,9.49
2022-11-16T14:46:47.812Z,9.95
2022-11-16T14:49:20.389Z,9.62
2022-11-16T14:51:52.350Z,9.71
2022-11-16T14:54:29.582Z,9.77
2022-11-16T14:57:00.045Z,9.31
2022-11-16T14:59:28.897Z,9.78
2022-11-16T15:01:57.310Z,9.32
2022-11-16T15:04:27.155Z,9.44
2022-11-16T15:06:58.957Z,9.32
2022-11-16T15:09:31.736Z,9.54
2022-11-16T15:12:19.955Z,9.85
2022-11-16T15:14:51.413Z,9.18
2022-11-16T15:17:22.131Z,9.79
2022-11-16T15:19:57.085Z,9.42
2022-11-16T15:22:27.176Z,9.69
2022-11-16T15:24:58.115Z,9.74
2022-11-16T15:27:36.831Z,9.77
2022-11-16T15:30:14.568Z,9.81
2022-11-16T15:32:44.041Z,9.52
2022-11-16T15:35:19.920Z,9.58
2022-11-16T15:37:48.000Z,9.48
2022-11-16T15:40:17.689Z,9.95
2022-11-16T15:42:45.808Z,9.51
2022-11-16T15:45:23.003Z,9.60
2022-11-16T15:47:53.817Z,9.39
2022-11-16T15:50:24.280Z,8.98
2022-11-16T15:52:55.226Z,9.37
2022-11-16T15:55:32.697Z,9.38
2022-11-16T15:58:22.288Z,9.30
2022-11-16T16:00:50.631Z,9.29
2022-11-16T16:03:23.010Z,9.48
2022-11-16T16:05:51.385Z,9.69
2022-11-16T16:08:34.366Z,9.94
2022-11-16T16:11:06.628Z,9.47
2022-11-16T16:13:37.652Z,10.08
2022-11-16T16:16:27.350Z,9.70
2022-11-16T16:19:00.774Z,9.81
2022-11-16T16:21:42.539Z,9.15
2022-11-16T16:24:12.928Z,9.19
2022-11-16T16:26:42.257Z,9.62
2022-11-16T16:29:10.180Z,9.22
2022-11-16T16:31:38.145Z,9.47
2022-11-16T16:34:12.572Z,9.68
2022-11-16T16:36:40.536Z,9.28
2022-11-16T16:39:08.514Z,9.40
2022-11-16T16:41:36.511Z,9.24
2022-11-16T16:44:14.721Z,9.49
2022-11-16T16:46:42.857Z,9.58
2022-11-16T16:49:11.687Z,9.66
2022-11-16T16:51:39.651Z,9.49
2022-11-16T16:54:07.990Z,9.46
2022-11-16T16:56:35.958Z,8.94
2022-11-16T16:59:04.076Z,9.24
2022-11-16T17:01:33.549Z,9.52
2022-11-16T17:04:01.514Z,8.84
2022-11-16T17:06:30.650Z,9.03
2022-11-16T17:08:58.642Z,9.17
2022-11-16T17:11:26.909Z,8.82
2022-11-16T17:13:54.867Z,9.37
2022-11-16T17:16:22.885Z,9.39
2022-11-16T17:18:56.689Z,9.35
2022-11-16T17:21:24.658Z,9.28
2022-11-16T17:23:52.587Z,9.33
2022-11-16T17:26:20.968Z,9.59
2022-11-16T17:28:49.147Z,9.38
2022-11-16T17:31:17.484Z,9.35
2022-11-16T17:33:45.397Z,9.26
2022-11-16T17:36:15.103Z,9.47
2022-11-16T17:38:43.172Z,9.40
2022-11-16T17:41:13.723Z,9.20
2022-11-16T17:43:42.844Z,9.59
2022-11-16T17:46:12.665Z,9.70
2022-11-16T17:48:42.234Z,9.39
2022-11-16T17:51:10.597Z,9.80
2022-11-16T17:53:40.776Z,8.97
2022-11-16T17:56:09.132Z,9.25
2022-11-16T17:58:37.045Z,9.39
2022-11-16T18:01:05.208Z,9.64
2022-11-16T18:03:33.549Z,9.67
2022-11-16T18:06:04.464Z,9.37
2022-11-16T18:08:33.019Z,9.23
2022-11-16T18:11:06.717Z,9.25
2022-11-16T18:13:35.551Z,9.28
2022-11-16T18:16:05.688Z,9.41
2022-11-16T18:18:34.439Z,9.48
2022-11-16T18:21:02.909Z,9.27
2022-11-16T18:23:30.957Z,9.45
2022-11-16T18:25:58.921Z,9.26
2022-11-16T18:28:30.115Z,9.46
2022-11-16T18:31:04.017Z,8.86
2022-11-16T18:33:32.466Z,9.34
2022-11-16T18:36:00.789Z,8.64
2022-11-16T18:38:28.727Z,8.97
2022-11-16T18:41:16.628Z,9.26
2022-11-16T18:43:50.982Z,9.59
2022-11-16T18:46:19.157Z,9.51
2022-11-16T18:48:47.806Z,9.49
2022-11-16T18:51:16.731Z,9.70
2022-11-16T18:53:45.045Z,9.37
2022-11-16T18:56:13.030Z,9.42
2022-11-16T18:58:50.987Z,9.54
2022-11-16T19:01:24.595Z,9.37
2022-11-16T19:03:53.256Z,8.88
2022-11-16T19:06:22.261Z,9.22
2022-11-16T19:08:56.399Z,9.42
2022-11-16T19:11:25.549Z,9.37
2022-11-16T19:13:55.229Z,9.88
2022-11-16T19:16:25.869Z,9.70
2022-11-16T19:18:54.095Z,9.92
2022-11-16T19:21:23.054Z,9.34
2022-11-16T19:23:52.997Z,9.12
2022-11-16T19:26:23.578Z,9.47
2022-11-16T19:28:55.284Z,8.77
2022-11-16T19:31:26.533Z,9.35
2022-11-16T19:33:56.031Z,9.33
2022-11-16T19:36:25.727Z,9.31
2022-11-16T19:38:53.851Z,8.88
2022-11-16T19:41:22.938Z,8.72
2022-11-16T19:43:52.572Z,9.10
2022-11-16T19:46:21.549Z,9.63
2022-11-16T19:48:51.242Z,9.14
2022-11-16T19:51:21.442Z,8.99
2022-11-16T19:53:49.668Z,8.92
2022-11-16T19:56:19.903Z,9.05
2022-11-16T19:58:48.259Z,8.84
2022-11-16T20:01:18.275Z,9.51
2022-11-16T20:03:47.062Z,9.45
2022-11-16T20:06:18.988Z,9.44
2022-11-16T20:08:49.551Z,9.07
2022-11-16T20:11:20.448Z,9.30
2022-11-16T20:13:48.960Z,8.83
2022-11-16T20:16:18.239Z,9.25
2022-11-16T20:18:47.551Z,9.43
2022-11-16T20:21:20.667Z,9.48
2022-11-16T20:23:48.785Z,9.28
2022-11-16T20:26:16.931Z,9.67
2022-11-16T20:28:45.309Z,9.57
2022-11-16T20:31:15.249Z,9.52
2022-11-16T20:33:43.939Z,8.92
2022-11-16T20:36:12.907Z,9.05
2022-11-16T20:38:42.306Z,9.29
2022-11-16T20:41:11.791Z,9.29
2022-11-16T20:43:40.482Z,9.50
2022-11-16T20:46:09.579Z,9.59
2022-11-16T20:48:38.247Z,9.38
2022-11-16T20:51:07.340Z,9.41
2022-11-16T20:53:35.900Z,9.01
2022-11-16T20:56:07.626Z,8.94
2022-11-16T20:58:36.170Z,8.71
2022-11-16T21:01:05.169Z,8.71
2022-11-16T21:03:33.702Z,8.62
2022-11-16T21:06:01.951Z,8.64
2022-11-16T21:08:30.156Z,8.86
2022-11-16T21:10:58.380Z,9.08
2022-11-16T21:13:45.214Z,9.18
2022-11-16T21:16:15.381Z,8.91
2022-11-16T21:18:43.446Z,8.78
2022-11-16T21:21:13.320Z,8.58
2022-11-16T21:23:45.039Z,8.86
2022-11-16T21:26:15.756Z,9.05
2022-11-16T21:28:45.533Z,8.08
2022-11-16T21:31:15.379Z,8.22
2022-11-16T21:33:44.957Z,8.37
2022-11-16T21:36:14.782Z,8.41
2022-11-16T21:38:43.201Z,8.42
2022-11-16T21:41:12.034Z,8.51
2022-11-16T21:43:40.847Z,8.54
2022-11-16T21:46:12.984Z,7.78
2022-11-16T21:48:41.555Z,8.30
2022-11-16T21:51:10.836Z,8.22
2022-11-16T21:53:39.440Z,8.32
2022-11-16T21:56:08.836Z,8.38
2022-11-16T21:58:36.848Z,8.33
2022-11-16T22:01:04.871Z,8.07
2022-11-16T22:03:34.589Z,7.86
2022-11-16T22:06:22.427Z,8.10
2022-11-16T22:08:50.928Z,8.10
2022-11-16T22:11:22.107Z,7.92
2022-11-16T22:13:51.113Z,8.49
2022-11-16T22:16:20.952Z,8.40
2022-11-16T22:18:50.932Z,8.04
2022-11-16T22:21:18.937Z,8.50
2022-11-16T22:23:46.940Z,8.42
2022-11-16T22:26:15.316Z,8.28
2022-11-16T22:28:43.526Z,7.64
2022-11-16T22:31:13.467Z,8.07
2022-11-16T22:33:42.017Z,7.96
2022-11-16T22:36:11.966Z,7.96
2022-11-16T22:38:40.075Z,8.08
2022-11-16T22:41:08.169Z,7.52
2022-11-16T22:43:37.425Z,7.59
2022-11-16T22:46:06.917Z,8.11
2022-11-16T22:48:37.099Z,8.68
2022-11-16T22:51:07.382Z,7.95
2022-11-16T22:53:37.070Z,7.81
2022-11-16T22:56:07.478Z,7.52
2022-11-16T22:58:35.794Z,8.24
2022-11-16T23:01:04.296Z,8.00
2022-11-16T23:03:32.928Z,8.27
2022-11-16T23:06:01.050Z,8.02
2022-11-16T23:08:29.016Z,8.50
2022-11-16T23:11:21.000Z,8.35
2022-11-16T23:14:07.498Z,8.13
2022-11-16T23:16:35.799Z,8.01
2022-11-16T23:19:24.202Z,8.02
2022-11-16T23:22:09.723Z,8.00
2022-11-16T23:24:55.385Z,8.26
2022-11-16T23:27:31.406Z,7.87
2022-11-16T23:30:01.481Z,7.88
2022-11-16T23:32:30.703Z,7.97
2022-11-16T23:34:58.687Z,7.89
2022-11-16T23:37:26.842Z,7.59
2022-11-16T23:39:54.798Z,7.45
2022-11-16T23:42:41.596Z,7.45
2022-11-16T23:45:10.256Z,7.13
2022-11-16T23:47:38.200Z,7.42
2022-11-16T23:50:06.797Z,7.70
2022-11-16T23:52:34.772Z,6.83
2022-11-16T23:55:02.694Z,7.63
2022-11-16T23:57:32.131Z,7.51
